Portada
METAR-TAF:

METAR-TAF

Aeroports :

Làrnaca, Xipre

latitud: 34-53N, longitud: 033-38E, altitud: 2 m

Observació

L'informe es va fer fa 7 minuts, a les 20:00 UTC
Vent 3 kt del Sud-Oest
Temperatura 18°C
Humitat 88%
Pressió 1006 hPa
Visibilitat 10 km o més
Escasses núvols a una alçada de 2000 ft

METAR: LCLK 202000Z 22003KT 9999 FEW020 18/16 Q1006 NOSIG

Hora: 23:07 (20:07 UTC)

Pronòstic

L'informe es va fer fa 2 hores i 37 minuts, a les 17:30 UTC
Pronòstic vàlid del 20 a les 18 UTC al 21 a les 18 UTC
Vent 8 kt del Nord/Nord-Oest
Visibilitat 10 km o més
Escasses núvols a una alçada de 2500 ft
Evolucionant progressivament
l' 21 a les 08 UTC al 21 a les 12 UTC
Vent 12 kt del Est/Sud-Est
Evolucionant progressivament
l' 21 a les 15 UTC al 21 a les 18 UTC
Vent 8 kt del Nord/Nord-Oest

TAF: LCLK 201730Z 2018/2118 33008KT 9999 FEW025 BECMG 2108/2112 12012KT BECMG 2115/2118 33008KT

Observacions i pronòstics meteorològics de més de 4000 aeroports (METAR i TAF).

Les estacions disponibles són els punts grocs i vermells al mapa.

Posi el ratolí al punt desitjat per veure el nom de l'estació.

Feu clic per veure les observacions i els pronòstics meteorològics.

Per canviar el mapa: feu clic els botons verds amb una creu de color negre per apropar; al botó verd amb un guió per allunyar la imatge; o en les fletxes verdes per a mapes adjacents.


METAR-TAF: